Time;durP1;ratioP1;P1;durP2;ratioP2;P2;SDS_P1;SDS_P2;PMS_P1;PMS_P2;Temp;Humidity;BMP_temperature;BMP_pressure;BME280_temperature;BME280_humidity;BME280_pressure;Samples;Min_cycle;Max_cycle;Signal;HPM_P1;HPM_P2
2022/12/20 00:01:40;;;;;;;4.57;1.50;;;;;;;;;;5046099;28;20021;-66
2022/12/20 00:04:06;;;;;;;6.82;1.70;;;;;;;;;;5049587;28;20483;-66
2022/12/20 00:06:32;;;;;;;4.85;1.52;;;;;;;;;;5047471;28;20017;-65
2022/12/20 00:09:00;;;;;;;2.97;1.38;;;;;;;;;;5049768;28;20017;-66
2022/12/20 00:11:25;;;;;;;2.60;1.17;;;;;;;;;;5045296;28;20379;-68
2022/12/20 00:13:51;;;;;;;2.65;1.30;;;;;;;;;;5049420;28;20037;-67
2022/12/20 00:16:17;;;;;;;3.53;1.70;;;;;;;;;;5045290;28;20059;-67
2022/12/20 00:18:43;;;;;;;3.00;1.45;;;;;;;;;;5048835;28;20543;-67
2022/12/20 00:21:10;;;;;;;2.17;1.10;;;;;;;;;;5048574;28;20067;-66
2022/12/20 00:23:35;;;;;;;2.03;1.20;;;;;;;;;;5048740;28;20133;-66
2022/12/20 00:26:02;;;;;;;3.50;1.45;;;;;;;;;;5049552;28;20104;-67
2022/12/20 00:28:27;;;;;;;4.68;1.50;;;;;;;;;;5041414;28;20488;-67
2022/12/20 00:30:53;;;;;;;4.72;1.70;;;;;;;;;;5032701;28;20089;-66
2022/12/20 00:33:18;;;;;;;2.83;1.40;;;;;;;;;;5051358;28;20044;-67
2022/12/20 00:35:44;;;;;;;2.67;1.35;;;;;;;;;;5053619;28;20024;-67
2022/12/20 00:38:09;;;;;;;2.80;1.65;;;;;;;;;;5052433;28;20044;-66
2022/12/20 00:40:34;;;;;;;2.40;1.33;;;;;;;;;;5053148;28;20371;-66
2022/12/20 00:42:59;;;;;;;4.17;1.40;;;;;;;;;;5054046;28;20946;-67
2022/12/20 00:45:24;;;;;;;3.78;1.80;;;;;;;;;;5049618;28;20270;-66
2022/12/20 00:47:50;;;;;;;2.70;1.20;;;;;;;;;;5050561;28;20079;-67
2022/12/20 00:50:15;;;;;;;7.07;1.57;;;;;;;;;;5012784;28;20290;-67
2022/12/20 00:52:40;;;;;;;3.15;1.50;;;;;;;;;;5012956;28;20331;-66
2022/12/20 00:55:05;;;;;;;2.37;1.20;;;;;;;;;;5018241;28;20028;-67
2022/12/20 00:57:31;;;;;;;4.53;1.70;;;;;;;;;;5012691;28;20272;-67
2022/12/20 00:59:56;;;;;;;2.53;1.27;;;;;;;;;;5045796;28;20039;-67
2022/12/20 01:02:21;;;;;;;3.63;1.58;;;;;;;;;;5051941;28;20387;-66
2022/12/20 01:04:47;;;;;;;3.55;1.40;;;;;;;;;;5052268;28;20031;-66
2022/12/20 01:07:13;;;;;;;5.03;1.50;;;;;;;;;;5026325;28;20021;-65
2022/12/20 01:09:38;;;;;;;2.30;1.33;;;;;;;;;;5052158;28;20027;-65
2022/12/20 01:12:03;;;;;;;2.17;1.13;;;;;;;;;;5047520;28;20014;-64
2022/12/20 01:14:29;;;;;;;2.40;1.25;;;;;;;;;;5035295;28;20291;-67
2022/12/20 01:16:54;;;;;;;3.58;1.60;;;;;;;;;;5051667;28;20013;-66
2022/12/20 01:19:19;;;;;;;2.97;1.25;;;;;;;;;;5051823;28;20020;-66
2022/12/20 01:21:44;;;;;;;2.50;1.00;;;;;;;;;;5051662;28;20467;-66
2022/12/20 01:24:10;;;;;;;3.40;1.70;;;;;;;;;;5052934;28;20025;-65
2022/12/20 01:26:36;;;;;;;3.45;1.58;;;;;;;;;;5050112;28;20263;-66
2022/12/20 01:29:01;;;;;;;2.47;1.38;;;;;;;;;;5047083;28;20025;-66
2022/12/20 01:31:28;;;;;;;2.55;1.23;;;;;;;;;;5052665;28;20434;-66
2022/12/20 01:33:53;;;;;;;2.65;1.00;;;;;;;;;;5052415;28;20044;-66
2022/12/20 01:36:20;;;;;;;2.33;1.15;;;;;;;;;;5049913;28;20013;-65
2022/12/20 01:38:45;;;;;;;2.65;1.50;;;;;;;;;;5050245;28;20376;-66
2022/12/20 01:41:14;;;;;;;4.05;1.70;;;;;;;;;;5045368;28;20021;-67
2022/12/20 01:43:51;;;;;;;4.47;1.40;;;;;;;;;;5007808;28;20028;-66
2022/12/20 01:46:18;;;;;;;3.15;1.52;;;;;;;;;;5009230;28;20128;-66
2022/12/20 01:48:47;;;;;;;2.75;1.15;;;;;;;;;;5006460;28;20013;-66
2022/12/20 01:51:12;;;;;;;3.83;1.95;;;;;;;;;;5004761;28;20121;-66
2022/12/20 01:53:38;;;;;;;4.30;1.85;;;;;;;;;;5044536;28;20041;-67
2022/12/20 01:56:05;;;;;;;3.38;1.55;;;;;;;;;;5051234;28;20508;-66
2022/12/20 01:58:31;;;;;;;9.38;1.70;;;;;;;;;;5051307;28;20029;-66
2022/12/20 02:00:56;;;;;;;3.03;1.60;;;;;;;;;;5050997;28;20478;-66
2022/12/20 02:03:21;;;;;;;4.20;1.88;;;;;;;;;;5051208;28;20195;-66
2022/12/20 02:05:47;;;;;;;4.35;1.80;;;;;;;;;;5050608;28;20379;-66
2022/12/20 02:08:13;;;;;;;2.35;1.38;;;;;;;;;;5050541;28;20112;-66
2022/12/20 02:10:57;;;;;;;5.43;1.90;;;;;;;;;;5050864;28;20024;-66
2022/12/20 02:13:43;;;;;;;3.13;1.63;;;;;;;;;;5050264;28;20487;-66
2022/12/20 02:16:08;;;;;;;4.13;1.92;;;;;;;;;;5045582;28;20098;-66
2022/12/20 02:18:36;;;;;;;3.85;1.73;;;;;;;;;;5050690;28;20032;-67
2022/12/20 02:21:07;;;;;;;3.65;2.08;;;;;;;;;;5049487;28;20056;-66
2022/12/20 02:23:41;;;;;;;3.67;1.70;;;;;;;;;;5050388;28;20021;-67
2022/12/20 02:26:09;;;;;;;4.53;1.90;;;;;;;;;;5049530;28;20368;-66
2022/12/20 02:28:53;;;;;;;3.85;1.42;;;;;;;;;;5044410;28;20021;-66
2022/12/20 02:31:24;;;;;;;2.58;1.30;;;;;;;;;;5050760;28;20483;-66
2022/12/20 02:33:51;;;;;;;3.10;1.63;;;;;;;;;;5048022;28;20029;-66
2022/12/20 02:36:17;;;;;;;3.53;1.70;;;;;;;;;;5049972;28;20021;-64
2022/12/20 02:38:42;;;;;;;4.43;1.92;;;;;;;;;;5049259;28;20075;-65
2022/12/20 02:41:13;;;;;;;3.17;1.70;;;;;;;;;;5048686;28;20044;-65
2022/12/20 02:46:25;;;;;;;4.72;1.92;;;;;;;;;;5043960;28;20036;-65
2022/12/20 02:48:50;;;;;;;4.60;1.92;;;;;;;;;;5049225;28;20052;-65
2022/12/20 02:51:17;;;;;;;3.40;1.80;;;;;;;;;;5049428;28;20495;-65
2022/12/20 02:53:42;;;;;;;5.70;2.05;;;;;;;;;;5049034;28;20478;-65
2022/12/20 02:56:08;;;;;;;3.78;2.08;;;;;;;;;;5048202;28;20015;-65
2022/12/20 02:58:36;;;;;;;2.67;1.50;;;;;;;;;;5049820;28;20021;-65
2022/12/20 03:01:03;;;;;;;4.03;1.73;;;;;;;;;;5046229;28;20260;-64
2022/12/20 03:03:33;;;;;;;4.18;1.70;;;;;;;;;;5047645;28;20120;-65
2022/12/20 03:05:58;;;;;;;3.97;2.22;;;;;;;;;;5049285;28;20027;-65
2022/12/20 03:08:24;;;;;;;5.25;2.03;;;;;;;;;;5049443;28;20387;-65
2022/12/20 03:10:50;;;;;;;4.60;2.17;;;;;;;;;;5049129;28;20028;-64
2022/12/20 03:13:15;;;;;;;3.60;1.80;;;;;;;;;;5048339;28;20047;-65
2022/12/20 03:15:41;;;;;;;5.82;2.55;;;;;;;;;;5046436;28;20033;-65
2022/12/20 03:18:06;;;;;;;3.88;1.60;;;;;;;;;;5048129;28;20025;-64
2022/12/20 03:20:31;;;;;;;4.57;2.22;;;;;;;;;;5048440;28;20067;-65
2022/12/20 03:22:56;;;;;;;5.10;2.47;;;;;;;;;;5049912;28;20425;-65
2022/12/20 03:25:22;;;;;;;4.60;2.55;;;;;;;;;;5045139;28;20086;-65
2022/12/20 03:27:47;;;;;;;6.10;2.38;;;;;;;;;;5049087;28;20035;-65
2022/12/20 03:30:13;;;;;;;5.63;2.47;;;;;;;;;;5049960;28;20021;-65
2022/12/20 03:32:38;;;;;;;3.80;2.10;;;;;;;;;;5047132;28;20013;-65
2022/12/20 03:35:03;;;;;;;3.33;2.00;;;;;;;;;;5049689;28;20379;-66
2022/12/20 03:37:28;;;;;;;4.68;2.38;;;;;;;;;;5049307;28;20029;-66
2022/12/20 03:39:54;;;;;;;3.93;1.90;;;;;;;;;;5047925;28;20017;-66
2022/12/20 03:42:19;;;;;;;3.08;2.05;;;;;;;;;;5048524;28;20279;-68
2022/12/20 03:44:44;;;;;;;2.83;1.70;;;;;;;;;;5047250;28;20029;-66
2022/12/20 03:47:09;;;;;;;5.27;2.20;;;;;;;;;;5049743;28;20024;-66
2022/12/20 03:49:35;;;;;;;6.85;2.30;;;;;;;;;;5047631;28;20287;-65
2022/12/20 03:52:00;;;;;;;3.47;2.00;;;;;;;;;;5049352;28;20021;-65
2022/12/20 03:54:26;;;;;;;3.38;2.10;;;;;;;;;;5048975;28;20033;-65
2022/12/20 03:56:51;;;;;;;4.13;2.25;;;;;;;;;;5048513;28;20065;-65
2022/12/20 03:59:16;;;;;;;4.50;2.25;;;;;;;;;;5048955;28;20020;-65
2022/12/20 04:01:41;;;;;;;4.20;2.37;;;;;;;;;;5040330;28;20068;-65
2022/12/20 04:04:09;;;;;;;4.20;2.22;;;;;;;;;;5023377;28;20280;-64
2022/12/20 04:06:34;;;;;;;4.93;2.40;;;;;;;;;;5029117;28;20028;-65
2022/12/20 04:08:59;;;;;;;4.00;2.00;;;;;;;;;;5011699;28;20554;-65
2022/12/20 04:11:24;;;;;;;5.10;2.30;;;;;;;;;;5052759;28;20709;-65
2022/12/20 04:13:50;;;;;;;4.70;2.40;;;;;;;;;;5051962;28;20037;-66
2022/12/20 04:16:17;;;;;;;4.97;2.90;;;;;;;;;;5053532;28;20863;-65
2022/12/20 04:18:42;;;;;;;4.10;2.28;;;;;;;;;;5053679;28;20045;-65
2022/12/20 04:21:09;;;;;;;7.13;2.50;;;;;;;;;;5052855;28;20052;-65
2022/12/20 04:23:35;;;;;;;8.85;2.50;;;;;;;;;;5050374;28;20104;-65
2022/12/20 04:26:00;;;;;;;7.18;2.70;;;;;;;;;;5050531;28;20029;-66
2022/12/20 04:28:26;;;;;;;4.10;2.13;;;;;;;;;;5051995;28;20112;-66
2022/12/20 04:30:51;;;;;;;4.75;2.65;;;;;;;;;;5052993;28;20017;-66
2022/12/20 04:33:16;;;;;;;5.47;2.20;;;;;;;;;;5043551;28;20029;-66
2022/12/20 04:35:42;;;;;;;5.25;2.38;;;;;;;;;;5047807;28;20091;-66
2022/12/20 04:38:07;;;;;;;4.45;2.15;;;;;;;;;;5052859;28;20071;-66
2022/12/20 04:40:32;;;;;;;3.60;2.00;;;;;;;;;;5050318;28;20494;-66
2022/12/20 04:42:57;;;;;;;3.47;1.50;;;;;;;;;;5053094;28;20375;-66
2022/12/20 04:45:23;;;;;;;5.07;2.03;;;;;;;;;;5042350;28;20322;-65
2022/12/20 04:47:48;;;;;;;5.28;2.38;;;;;;;;;;5046554;28;20033;-65
2022/12/20 04:50:13;;;;;;;6.70;2.13;;;;;;;;;;5053013;28;20017;-65
2022/12/20 04:55:22;;;;;;;4.65;2.30;;;;;;;;;;5042884;28;20106;-65
2022/12/20 04:57:47;;;;;;;4.88;2.25;;;;;;;;;;5051061;28;20463;-65
2022/12/20 05:00:14;;;;;;;6.07;2.13;;;;;;;;;;5043126;28;20048;-66
2022/12/20 05:02:39;;;;;;;3.35;1.88;;;;;;;;;;5052409;28;20137;-66
2022/12/20 05:05:04;;;;;;;3.83;1.80;;;;;;;;;;5051215;28;20100;-65
2022/12/20 05:07:30;;;;;;;4.25;2.00;;;;;;;;;;5052978;28;20464;-66
2022/12/20 05:09:55;;;;;;;4.57;1.90;;;;;;;;;;5051805;28;20013;-65
2022/12/20 05:12:20;;;;;;;4.30;1.88;;;;;;;;;;5051559;28;20029;-65
2022/12/20 05:14:45;;;;;;;4.15;2.35;;;;;;;;;;5051935;28;20021;-65
2022/12/20 05:17:10;;;;;;;3.77;1.80;;;;;;;;;;5051951;28;20452;-65
2022/12/20 05:19:36;;;;;;;5.43;1.80;;;;;;;;;;5051242;28;20680;-66
2022/12/20 05:27:29;;;;;;;5.80;2.10;;;;;;;;;;5051774;28;20389;-66
2022/12/20 05:29:54;;;;;;;3.35;1.52;;;;;;;;;;5051386;28;20033;-66
2022/12/20 05:32:19;;;;;;;4.65;2.25;;;;;;;;;;5050185;28;20037;-66
2022/12/20 05:34:45;;;;;;;2.17;1.13;;;;;;;;;;5051636;28;20024;-67
2022/12/20 05:37:10;;;;;;;3.75;1.67;;;;;;;;;;5048636;28;20021;-66
2022/12/20 05:39:35;;;;;;;4.15;1.52;;;;;;;;;;5052222;28;20104;-67
2022/12/20 05:42:01;;;;;;;3.72;1.75;;;;;;;;;;5052014;28;20020;-66
2022/12/20 05:44:26;;;;;;;3.30;1.50;;;;;;;;;;5051736;28;20035;-65
2022/12/20 05:46:51;;;;;;;2.90;1.38;;;;;;;;;;5050310;28;20089;-65
2022/12/20 05:49:16;;;;;;;4.00;1.90;;;;;;;;;;5049874;28;20033;-67
2022/12/20 05:51:42;;;;;;;2.95;1.40;;;;;;;;;;5032684;28;20271;-67
2022/12/20 05:54:07;;;;;;;3.28;1.65;;;;;;;;;;5018882;28;20158;-66
2022/12/20 05:56:32;;;;;;;3.17;1.30;;;;;;;;;;5049912;28;20467;-66
2022/12/20 05:58:58;;;;;;;2.33;1.30;;;;;;;;;;5051365;28;20267;-67
2022/12/20 06:01:23;;;;;;;3.30;1.30;;;;;;;;;;5050325;28;21053;-67
2022/12/20 06:03:49;;;;;;;3.17;1.67;;;;;;;;;;5049019;28;20024;-67
2022/12/20 06:06:15;;;;;;;3.63;1.50;;;;;;;;;;5049204;28;20021;-66
2022/12/20 06:08:41;;;;;;;4.80;1.33;;;;;;;;;;5049140;28;20021;-66
2022/12/20 06:11:06;;;;;;;4.43;1.30;;;;;;;;;;5045760;28;20021;-66
2022/12/20 06:13:31;;;;;;;3.72;1.35;;;;;;;;;;5044914;28;20050;-65
2022/12/20 06:15:56;;;;;;;2.80;1.63;;;;;;;;;;5045623;28;20017;-65
2022/12/20 06:18:22;;;;;;;3.77;1.43;;;;;;;;;;5043508;28;20271;-65
2022/12/20 06:20:50;;;;;;;3.97;1.60;;;;;;;;;;5043574;28;20287;-66
2022/12/20 06:23:16;;;;;;;4.82;1.60;;;;;;;;;;5043032;28;20349;-66
2022/12/20 06:25:42;;;;;;;3.22;1.60;;;;;;;;;;5041605;28;20123;-65
2022/12/20 06:28:07;;;;;;;2.65;1.25;;;;;;;;;;5043692;28;20074;-67
2022/12/20 06:30:33;;;;;;;7.50;1.60;;;;;;;;;;5044047;28;20017;-67
2022/12/20 06:32:59;;;;;;;3.25;1.10;;;;;;;;;;5043777;28;20386;-67
2022/12/20 06:35:24;;;;;;;2.50;1.17;;;;;;;;;;5050075;28;20524;-66
2022/12/20 06:37:49;;;;;;;2.97;1.30;;;;;;;;;;5049698;28;20017;-67
2022/12/20 06:40:15;;;;;;;3.50;1.48;;;;;;;;;;5049343;28;20025;-66
2022/12/20 06:42:40;;;;;;;3.10;1.48;;;;;;;;;;5049556;28;20036;-66
2022/12/20 06:45:06;;;;;;;4.75;1.50;;;;;;;;;;5048478;28;20815;-66
2022/12/20 06:47:31;;;;;;;2.90;1.50;;;;;;;;;;5048302;28;20029;-67
2022/12/20 06:49:56;;;;;;;3.45;1.40;;;;;;;;;;5048077;28;20020;-67
2022/12/20 06:52:22;;;;;;;2.70;1.10;;;;;;;;;;5047792;28;20053;-67
2022/12/20 06:54:47;;;;;;;2.17;1.30;;;;;;;;;;5049206;28;20017;-66
2022/12/20 06:57:12;;;;;;;2.38;1.40;;;;;;;;;;5049855;28;20013;-67
2022/12/20 06:59:37;;;;;;;7.30;1.45;;;;;;;;;;5049835;28;20048;-66
2022/12/20 07:02:03;;;;;;;2.50;1.00;;;;;;;;;;5041943;28;20017;-67
2022/12/20 07:04:28;;;;;;;3.00;1.45;;;;;;;;;;5048801;28;20605;-67
2022/12/20 07:06:53;;;;;;;2.63;1.27;;;;;;;;;;5048047;28;20103;-67
2022/12/20 07:09:19;;;;;;;2.70;1.50;;;;;;;;;;5047536;28;20267;-68
2022/12/20 07:11:44;;;;;;;2.20;1.10;;;;;;;;;;5040565;28;20485;-68
2022/12/20 07:14:09;;;;;;;2.90;1.38;;;;;;;;;;5048958;28;20037;-67
2022/12/20 07:16:35;;;;;;;2.40;1.23;;;;;;;;;;5032491;28;20020;-67
2022/12/20 07:19:00;;;;;;;4.72;1.23;;;;;;;;;;5024571;28;20032;-65
2022/12/20 07:21:26;;;;;;;5.15;1.58;;;;;;;;;;4993978;28;20013;-67
2022/12/20 07:23:51;;;;;;;3.25;1.42;;;;;;;;;;5047993;28;20013;-68
2022/12/20 07:26:16;;;;;;;2.33;1.25;;;;;;;;;;5049086;28;20021;-67
2022/12/20 07:28:41;;;;;;;10.05;1.60;;;;;;;;;;5048502;28;20016;-67
2022/12/20 07:31:07;;;;;;;2.23;1.00;;;;;;;;;;5048963;28;20025;-67
2022/12/20 07:33:32;;;;;;;3.65;1.20;;;;;;;;;;5046582;28;20410;-68
2022/12/20 07:36:09;;;;;;;3.25;1.13;;;;;;;;;;5045814;28;20025;-67
2022/12/20 07:38:35;;;;;;;5.60;1.50;;;;;;;;;;5047621;28;20052;-67
2022/12/20 07:41:00;;;;;;;2.90;1.50;;;;;;;;;;5048960;28;20107;-68
2022/12/20 07:43:26;;;;;;;2.03;0.95;;;;;;;;;;5048802;28;20060;-68
2022/12/20 07:45:55;;;;;;;2.65;1.17;;;;;;;;;;5051710;28;20025;-68
2022/12/20 07:48:21;;;;;;;3.20;1.25;;;;;;;;;;5051340;28;20044;-68
2022/12/20 07:50:46;;;;;;;3.22;1.50;;;;;;;;;;5053091;28;20023;-67
2022/12/20 07:53:11;;;;;;;2.70;1.05;;;;;;;;;;5052707;28;20025;-68
2022/12/20 07:55:38;;;;;;;3.72;1.45;;;;;;;;;;5052689;28;20067;-67
2022/12/20 07:58:05;;;;;;;5.75;1.33;;;;;;;;;;5050797;28;20028;-68
2022/12/20 08:00:31;;;;;;;4.78;1.58;;;;;;;;;;5038360;28;20053;-68
2022/12/20 08:03:02;;;;;;;3.97;1.20;;;;;;;;;;5049705;28;20071;-67
2022/12/20 08:05:27;;;;;;;5.43;1.27;;;;;;;;;;5049842;28;20052;-67
2022/12/20 08:07:53;;;;;;;2.63;1.20;;;;;;;;;;5053158;28;20502;-68
2022/12/20 08:10:19;;;;;;;2.40;1.10;;;;;;;;;;5049236;28;20025;-67
2022/12/20 08:12:46;;;;;;;3.42;1.48;;;;;;;;;;5049048;28;20533;-67
2022/12/20 08:15:11;;;;;;;5.00;1.45;;;;;;;;;;5051538;28;20045;-67
2022/12/20 08:17:37;;;;;;;3.78;1.70;;;;;;;;;;5050795;28;20794;-68
2022/12/20 08:20:04;;;;;;;3.75;1.50;;;;;;;;;;5048059;28;20032;-67
2022/12/20 08:22:29;;;;;;;2.65;1.15;;;;;;;;;;5050372;28;20055;-67
2022/12/20 08:24:55;;;;;;;4.75;1.45;;;;;;;;;;5049701;28;20053;-67
2022/12/20 08:27:20;;;;;;;3.63;1.67;;;;;;;;;;5047966;28;20029;-65
2022/12/20 08:29:45;;;;;;;3.58;1.13;;;;;;;;;;5049150;28;20078;-67
2022/12/20 08:32:12;;;;;;;2.42;0.90;;;;;;;;;;5050435;28;20009;-68
2022/12/20 08:34:38;;;;;;;3.55;1.73;;;;;;;;;;5051083;28;20048;-68
2022/12/20 08:37:03;;;;;;;7.30;1.80;;;;;;;;;;5050951;28;20418;-68
2022/12/20 08:39:29;;;;;;;3.75;1.00;;;;;;;;;;5051286;28;20032;-67
2022/12/20 08:41:54;;;;;;;5.30;1.60;;;;;;;;;;5045584;28;20017;-67
2022/12/20 08:44:19;;;;;;;4.70;1.40;;;;;;;;;;5048528;28;20494;-67
2022/12/20 08:46:45;;;;;;;4.95;1.67;;;;;;;;;;5046896;28;20029;-67
2022/12/20 08:49:10;;;;;;;4.72;1.40;;;;;;;;;;5049649;28;20176;-67
2022/12/20 08:51:35;;;;;;;4.65;1.42;;;;;;;;;;5047299;28;20074;-67
2022/12/20 08:54:01;;;;;;;4.82;1.58;;;;;;;;;;5050103;28;20663;-67
2022/12/20 08:56:26;;;;;;;4.50;1.65;;;;;;;;;;5049339;28;20871;-67
2022/12/20 08:58:52;;;;;;;2.60;1.40;;;;;;;;;;5040035;28;20379;-66
2022/12/20 09:01:18;;;;;;;4.77;1.67;;;;;;;;;;5045484;28;20087;-67
2022/12/20 09:03:44;;;;;;;4.05;1.48;;;;;;;;;;5033306;28;21226;-66
2022/12/20 09:06:14;;;;;;;9.40;1.65;;;;;;;;;;5048055;28;20029;-66
2022/12/20 09:08:40;;;;;;;4.07;1.17;;;;;;;;;;5013696;28;20023;-66
2022/12/20 09:11:06;;;;;;;3.22;1.60;;;;;;;;;;5007568;28;20029;-66
2022/12/20 09:13:31;;;;;;;3.92;1.48;;;;;;;;;;5010809;28;20056;-66
2022/12/20 09:15:59;;;;;;;3.63;1.70;;;;;;;;;;5044393;28;20104;-66
2022/12/20 09:18:24;;;;;;;4.70;1.42;;;;;;;;;;5048612;28;20270;-66
2022/12/20 09:20:49;;;;;;;5.85;1.45;;;;;;;;;;5048049;28;20386;-66
2022/12/20 09:23:14;;;;;;;6.00;1.97;;;;;;;;;;5049336;28;20021;-66
2022/12/20 09:25:40;;;;;;;4.07;1.95;;;;;;;;;;5049864;28;20276;-66
2022/12/20 09:28:05;;;;;;;2.65;1.45;;;;;;;;;;5047377;28;20020;-67
2022/12/20 09:30:31;;;;;;;3.40;1.70;;;;;;;;;;5050306;28;20371;-66
2022/12/20 09:32:56;;;;;;;3.72;1.73;;;;;;;;;;5050546;28;20041;-66
2022/12/20 09:35:21;;;;;;;4.13;1.60;;;;;;;;;;5048277;28;20027;-67
2022/12/20 09:37:47;;;;;;;5.28;2.00;;;;;;;;;;5047798;28;20025;-67
2022/12/20 09:40:20;;;;;;;5.53;2.30;;;;;;;;;;5049771;28;20398;-67
2022/12/20 09:42:46;;;;;;;4.20;1.23;;;;;;;;;;5050742;28;20100;-67
2022/12/20 09:45:16;;;;;;;2.63;1.40;;;;;;;;;;5049226;28;20017;-67
2022/12/20 09:47:42;;;;;;;3.40;1.80;;;;;;;;;;5049285;28;20021;-68
2022/12/20 09:50:13;;;;;;;2.50;1.38;;;;;;;;;;5049965;28;20059;-71
2022/12/20 09:52:45;;;;;;;4.80;1.63;;;;;;;;;;5049698;28;20067;-70
2022/12/20 09:55:17;;;;;;;5.53;1.42;;;;;;;;;;5036624;28;20454;-67
2022/12/20 09:57:49;;;;;;;3.85;1.60;;;;;;;;;;5050682;28;20115;-66
2022/12/20 10:00:15;;;;;;;2.97;1.67;;;;;;;;;;5048682;28;20481;-68
2022/12/20 10:02:40;;;;;;;3.40;1.58;;;;;;;;;;5048467;28;20056;-68
2022/12/20 10:05:12;;;;;;;3.20;1.55;;;;;;;;;;5052399;28;20048;-68
2022/12/20 10:07:40;;;;;;;5.57;1.55;;;;;;;;;;5051059;28;20440;-69
2022/12/20 10:10:24;;;;;;;4.20;1.65;;;;;;;;;;5045569;28;20021;-69
2022/12/20 10:12:52;;;;;;;4.50;1.70;;;;;;;;;;5048055;28;20124;-65
2022/12/20 10:15:30;;;;;;;4.25;1.52;;;;;;;;;;5043195;28;20071;-66
2022/12/20 10:17:58;;;;;;;4.15;1.80;;;;;;;;;;5048057;28;20017;-67
2022/12/20 10:20:26;;;;;;;3.28;1.38;;;;;;;;;;5044826;28;20029;-67
2022/12/20 10:23:04;;;;;;;3.85;1.85;;;;;;;;;;5051306;28;20021;-67
2022/12/20 10:25:30;;;;;;;5.57;1.80;;;;;;;;;;5048699;28;20532;-67
2022/12/20 10:27:58;;;;;;;6.25;1.83;;;;;;;;;;5050694;28;20017;-66
2022/12/20 10:30:24;;;;;;;4.65;1.88;;;;;;;;;;5050556;28;20368;-66
2022/12/20 10:32:51;;;;;;;5.22;2.08;;;;;;;;;;5049907;28;20037;-70
2022/12/20 10:35:19;;;;;;;4.55;2.10;;;;;;;;;;5051458;28;20025;-67
2022/12/20 10:38:03;;;;;;;3.65;1.48;;;;;;;;;;5049011;28;20356;-67
2022/12/20 10:40:30;;;;;;;4.57;1.83;;;;;;;;;;5051816;28;20025;-67
2022/12/20 10:42:56;;;;;;;15.07;1.90;;;;;;;;;;5051216;28;20047;-66
2022/12/20 10:45:21;;;;;;;2.88;1.20;;;;;;;;;;5044205;28;20463;-68
2022/12/20 10:47:47;;;;;;;7.18;1.75;;;;;;;;;;5041664;28;20025;-67
2022/12/20 10:50:14;;;;;;;8.82;1.83;;;;;;;;;;5048708;28;20445;-66
2022/12/20 10:52:40;;;;;;;2.70;1.33;;;;;;;;;;5013968;28;20029;-67
2022/12/20 10:55:27;;;;;;;3.72;1.65;;;;;;;;;;5030351;28;20107;-66
2022/12/20 10:57:52;;;;;;;5.13;1.80;;;;;;;;;;5009122;28;20037;-66
2022/12/20 11:00:28;;;;;;;5.97;1.83;;;;;;;;;;5049673;28;20345;-66
2022/12/20 11:03:12;;;;;;;4.30;1.40;;;;;;;;;;5052350;28;20506;-67
2022/12/20 11:05:38;;;;;;;3.38;1.25;;;;;;;;;;5041540;28;20074;-66
2022/12/20 11:08:11;;;;;;;4.03;1.77;;;;;;;;;;5051311;28;20104;-67
2022/12/20 11:10:37;;;;;;;4.20;1.52;;;;;;;;;;5052215;28;20077;-66
2022/12/20 11:13:02;;;;;;;3.17;1.70;;;;;;;;;;5051552;28;20487;-66
2022/12/20 11:15:29;;;;;;;2.95;1.40;;;;;;;;;;5051393;28;20020;-66
2022/12/20 11:18:14;;;;;;;6.03;2.10;;;;;;;;;;5051455;28;20024;-66
2022/12/20 11:20:43;;;;;;;3.20;1.70;;;;;;;;;;5015811;28;20975;-67
2022/12/20 11:23:14;;;;;;;3.85;1.65;;;;;;;;;;4995149;28;20035;-67
2022/12/20 11:25:45;;;;;;;5.28;1.77;;;;;;;;;;5005553;28;20025;-66
2022/12/20 11:28:28;;;;;;;3.30;2.05;;;;;;;;;;5020125;28;20086;-65
2022/12/20 11:30:56;;;;;;;4.60;1.98;;;;;;;;;;5049951;28;20013;-65
2022/12/20 11:33:24;;;;;;;4.75;2.53;;;;;;;;;;5051863;28;20074;-65
2022/12/20 11:36:01;;;;;;;5.15;1.90;;;;;;;;;;5052222;28;20035;-65
2022/12/20 11:38:35;;;;;;;5.07;2.42;;;;;;;;;;5051802;28;20024;-65
2022/12/20 11:41:00;;;;;;;3.17;2.00;;;;;;;;;;5052242;28;20025;-66
2022/12/20 11:43:46;;;;;;;4.60;2.40;;;;;;;;;;5051223;28;20017;-66
2022/12/20 11:46:11;;;;;;;5.97;2.13;;;;;;;;;;5040185;28;20282;-66
2022/12/20 11:48:47;;;;;;;4.60;2.20;;;;;;;;;;5022428;28;20029;-66
2022/12/20 11:51:21;;;;;;;7.35;2.53;;;;;;;;;;5033067;28;20382;-65
2022/12/20 11:53:49;;;;;;;8.70;2.40;;;;;;;;;;5051174;28;20025;-65
2022/12/20 11:56:17;;;;;;;3.78;1.85;;;;;;;;;;5045886;28;20117;-66
2022/12/20 11:58:48;;;;;;;3.75;1.85;;;;;;;;;;5041063;28;20049;-66
2022/12/20 12:01:18;;;;;;;5.75;2.40;;;;;;;;;;5029778;28;20024;-66
2022/12/20 12:03:58;;;;;;;5.55;2.22;;;;;;;;;;5026262;28;20060;-66
2022/12/20 12:06:53;;;;;;;5.40;2.72;;;;;;;;;;5041854;28;20367;-66
2022/12/20 12:09:18;;;;;;;4.40;2.50;;;;;;;;;;5039694;28;20035;-65
2022/12/20 12:11:46;;;;;;;5.50;2.73;;;;;;;;;;5046523;28;20014;-65
2022/12/20 12:14:38;;;;;;;7.05;3.30;;;;;;;;;;5041525;28;20850;-65
2022/12/20 12:17:08;;;;;;;7.63;2.67;;;;;;;;;;5043139;28;20032;-66
2022/12/20 12:19:36;;;;;;;8.43;2.80;;;;;;;;;;5041523;28;20486;-65
2022/12/20 12:22:03;;;;;;;5.03;2.60;;;;;;;;;;5041443;28;20025;-65
2022/12/20 12:24:32;;;;;;;5.40;2.65;;;;;;;;;;5041442;28;20026;-65
2022/12/20 12:26:58;;;;;;;5.70;3.22;;;;;;;;;;5049067;28;20028;-65
2022/12/20 12:29:23;;;;;;;6.47;3.22;;;;;;;;;;5037043;28;20032;-64
2022/12/20 12:32:01;;;;;;;6.57;2.17;;;;;;;;;;5046740;28;20012;-66
2022/12/20 12:34:29;;;;;;;4.65;2.80;;;;;;;;;;5039032;28;20048;-66
2022/12/20 12:37:14;;;;;;;6.15;2.95;;;;;;;;;;5034030;28;20099;-66
2022/12/20 12:39:39;;;;;;;8.35;3.55;;;;;;;;;;5050389;28;20028;-65
2022/12/20 12:42:12;;;;;;;6.00;2.90;;;;;;;;;;5050806;28;20525;-66
2022/12/20 12:44:46;;;;;;;5.88;3.00;;;;;;;;;;5040205;28;20279;-66
2022/12/20 12:47:14;;;;;;;4.72;2.20;;;;;;;;;;5050814;28;20414;-66
2022/12/20 12:49:40;;;;;;;5.75;3.15;;;;;;;;;;5050233;28;20031;-66
2022/12/20 12:52:05;;;;;;;7.38;3.17;;;;;;;;;;5051326;28;20108;-66
2022/12/20 12:54:31;;;;;;;5.20;3.00;;;;;;;;;;5064856;28;20355;-64
2022/12/20 12:57:02;;;;;;;8.47;3.60;;;;;;;;;;5051101;28;20471;-65
2022/12/20 12:59:33;;;;;;;7.40;3.53;;;;;;;;;;5051495;28;20308;-64
2022/12/20 13:02:02;;;;;;;13.88;3.80;;;;;;;;;;5053594;28;20121;-64
2022/12/20 13:04:28;;;;;;;6.20;3.25;;;;;;;;;;5052475;28;20058;-64
2022/12/20 13:06:56;;;;;;;8.43;3.38;;;;;;;;;;5051539;28;20021;-64
2022/12/20 13:09:41;;;;;;;5.95;2.90;;;;;;;;;;5053753;28;20032;-68
2022/12/20 13:12:25;;;;;;;6.32;3.25;;;;;;;;;;5052100;28;20029;-65
2022/12/20 13:14:50;;;;;;;2.63;2.00;;;;;;;;;;5052090;28;20041;-66
2022/12/20 13:17:18;;;;;;;7.50;3.60;;;;;;;;;;5054002;28;20040;-66
2022/12/20 13:19:51;;;;;;;17.33;3.15;;;;;;;;;;5040862;28;20106;-64
2022/12/20 13:22:16;;;;;;;15.02;4.03;;;;;;;;;;5053160;28;20490;-64
2022/12/20 13:24:57;;;;;;;6.20;3.40;;;;;;;;;;5039004;28;20025;-64
2022/12/20 13:27:27;;;;;;;8.63;3.88;;;;;;;;;;5052955;28;20749;-64
2022/12/20 13:29:55;;;;;;;6.70;3.50;;;;;;;;;;5051728;28;20359;-64
2022/12/20 13:32:44;;;;;;;4.57;2.85;;;;;;;;;;5031412;28;20113;-66
2022/12/20 13:35:28;;;;;;;6.93;3.58;;;;;;;;;;5048259;28;20048;-66
2022/12/20 13:37:57;;;;;;;5.18;3.58;;;;;;;;;;5032687;28;20027;-66
2022/12/20 13:40:33;;;;;;;5.88;3.60;;;;;;;;;;5045782;28;20036;-68
2022/12/20 13:43:04;;;;;;;6.30;3.63;;;;;;;;;;5042804;28;20029;-65
2022/12/20 13:45:29;;;;;;;6.25;3.38;;;;;;;;;;5046931;28;20017;-64
2022/12/20 13:47:56;;;;;;;6.13;3.35;;;;;;;;;;5038630;28;20040;-64
2022/12/20 13:50:24;;;;;;;9.90;3.22;;;;;;;;;;5048081;28;20494;-64
2022/12/20 13:52:51;;;;;;;7.95;3.20;;;;;;;;;;5033097;28;20586;-64
2022/12/20 13:55:37;;;;;;;7.32;3.50;;;;;;;;;;5042344;28;20475;-64
2022/12/20 13:58:03;;;;;;;10.40;4.00;;;;;;;;;;5042149;28;20395;-64
2022/12/20 14:00:29;;;;;;;6.40;3.17;;;;;;;;;;5041386;28;20024;-66
2022/12/20 14:02:54;;;;;;;8.10;4.43;;;;;;;;;;5021220;28;20025;-66
2022/12/20 14:05:22;;;;;;;7.57;3.95;;;;;;;;;;5043299;28;20033;-65
2022/12/20 14:07:52;;;;;;;7.85;3.90;;;;;;;;;;5047742;28;20036;-64
2022/12/20 14:10:20;;;;;;;5.57;3.03;;;;;;;;;;5042372;28;20115;-64
2022/12/20 14:12:45;;;;;;;4.82;2.95;;;;;;;;;;5047753;28;20020;-64
2022/12/20 14:15:40;;;;;;;5.00;3.25;;;;;;;;;;5046098;28;20094;-64
2022/12/20 14:18:14;;;;;;;5.63;3.35;;;;;;;;;;5038483;28;20045;-64
2022/12/20 14:20:40;;;;;;;7.80;3.63;;;;;;;;;;5041406;28;20009;-64
2022/12/20 14:23:14;;;;;;;5.95;3.00;;;;;;;;;;5044801;28;20114;-64
2022/12/20 14:25:39;;;;;;;6.32;3.92;;;;;;;;;;5048168;28;20060;-63
2022/12/20 14:28:05;;;;;;;6.33;3.73;;;;;;;;;;5045181;28;20040;-64
2022/12/20 14:30:31;;;;;;;12.80;3.92;;;;;;;;;;5042983;28;20358;-64
2022/12/20 14:32:57;;;;;;;5.57;4.10;;;;;;;;;;5043555;28;20033;-65
2022/12/20 14:35:22;;;;;;;9.30;4.00;;;;;;;;;;5040645;28;20115;-64
2022/12/20 14:37:52;;;;;;;5.97;3.60;;;;;;;;;;5047798;28;20017;-64
2022/12/20 14:40:18;;;;;;;9.88;3.92;;;;;;;;;;5049039;28;20491;-63
2022/12/20 14:42:44;;;;;;;8.52;3.97;;;;;;;;;;5051977;28;20015;-63
2022/12/20 14:45:09;;;;;;;6.60;3.55;;;;;;;;;;5046389;28;20035;-64
2022/12/20 14:47:35;;;;;;;6.17;3.43;;;;;;;;;;5047020;28;20471;-64
2022/12/20 14:50:01;;;;;;;12.25;4.38;;;;;;;;;;5047072;28;21135;-63
2022/12/20 14:52:34;;;;;;;6.07;4.20;;;;;;;;;;5043928;28;20101;-64
2022/12/20 14:55:02;;;;;;;5.88;3.05;;;;;;;;;;5035394;28;20912;-64
2022/12/20 14:57:36;;;;;;;8.98;3.53;;;;;;;;;;5038431;28;20035;-64